createdAt,value
2022-12-16T00:01:06.943Z,18.10
2022-12-16T00:03:35.147Z,18.00
2022-12-16T00:06:04.530Z,22.50
2022-12-16T00:08:33.141Z,23.23
2022-12-16T00:11:00.968Z,18.30
2022-12-16T00:13:30.480Z,23.70
2022-12-16T00:15:58.523Z,26.10
2022-12-16T00:18:26.096Z,30.67
2022-12-16T00:20:54.900Z,24.93
2022-12-16T00:23:22.773Z,25.97
2022-12-16T00:25:50.347Z,30.53
2022-12-16T00:28:23.008Z,31.67
2022-12-16T00:30:52.746Z,30.30
2022-12-16T00:33:23.836Z,31.37
2022-12-16T00:35:51.743Z,30.37
2022-12-16T00:38:19.252Z,35.87
2022-12-16T00:40:46.929Z,28.70
2022-12-16T00:43:14.353Z,24.70
2022-12-16T00:45:41.771Z,31.77
2022-12-16T00:48:10.555Z,29.83
2022-12-16T00:50:37.976Z,34.77
2022-12-16T00:53:05.571Z,33.03
2022-12-16T00:55:33.457Z,29.20
2022-12-16T00:58:01.082Z,29.30
2022-12-16T01:00:28.518Z,32.77
2022-12-16T01:02:56.041Z,33.97
2022-12-16T01:05:26.559Z,34.50
2022-12-16T01:07:54.862Z,34.33
2022-12-16T01:10:22.498Z,31.23
2022-12-16T01:12:50.882Z,35.70
2022-12-16T01:15:18.620Z,27.80
2022-12-16T01:17:47.071Z,33.37
2022-12-16T01:20:14.501Z,34.53
2022-12-16T01:22:43.381Z,36.67
2022-12-16T01:25:10.980Z,35.47
2022-12-16T01:27:38.494Z,33.40
2022-12-16T01:30:06.480Z,32.90
2022-12-16T01:32:33.896Z,31.33
2022-12-16T01:35:01.508Z,32.60
2022-12-16T01:37:29.354Z,33.50
2022-12-16T01:39:58.275Z,34.07
2022-12-16T01:42:28.694Z,33.60
2022-12-16T01:44:56.248Z,37.00
2022-12-16T01:47:26.763Z,35.37
2022-12-16T01:49:55.103Z,31.53
2022-12-16T01:52:25.004Z,33.37
2022-12-16T01:54:54.338Z,35.23
2022-12-16T01:57:27.091Z,36.43
2022-12-16T01:59:55.621Z,27.20
2022-12-16T02:02:23.473Z,33.20
2022-12-16T02:05:08.863Z,31.90
2022-12-16T02:07:36.399Z,31.17
2022-12-16T02:10:04.391Z,30.47
2022-12-16T02:12:36.223Z,33.33
2022-12-16T02:15:15.117Z,32.80
2022-12-16T02:17:46.587Z,35.33
2022-12-16T02:20:26.389Z,36.53
2022-12-16T02:23:03.960Z,33.40
2022-12-16T02:25:46.262Z,40.93
2022-12-16T02:28:22.326Z,23.17
2022-12-16T02:31:08.622Z,21.80
2022-12-16T02:33:43.426Z,23.83
2022-12-16T02:36:13.376Z,26.73
2022-12-16T02:38:43.215Z,28.30
2022-12-16T02:41:13.795Z,29.17
2022-12-16T02:43:51.400Z,34.67
2022-12-16T02:46:21.911Z,38.60
2022-12-16T02:48:49.415Z,32.37
2022-12-16T02:51:17.188Z,25.20
2022-12-16T02:53:45.434Z,24.43
2022-12-16T02:56:19.350Z,29.57
2022-12-16T02:58:51.439Z,20.80
2022-12-16T03:01:25.394Z,21.73
2022-12-16T03:03:55.130Z,25.10
2022-12-16T03:06:23.468Z,26.40
2022-12-16T03:08:53.242Z,24.00
2022-12-16T03:11:21.233Z,29.33
2022-12-16T03:13:50.917Z,16.20
2022-12-16T03:16:20.449Z,22.50
2022-12-16T03:18:51.994Z,20.57
2022-12-16T03:21:23.294Z,21.13
2022-12-16T03:23:52.895Z,19.33
2022-12-16T03:26:22.835Z,20.67
2022-12-16T03:28:53.351Z,28.13
2022-12-16T03:31:25.473Z,22.17
2022-12-16T03:33:57.208Z,22.33
2022-12-16T03:36:25.835Z,26.70
2022-12-16T03:38:54.772Z,22.30
2022-12-16T03:41:24.099Z,28.23
2022-12-16T03:43:51.563Z,20.00
2022-12-16T03:46:19.401Z,21.67
2022-12-16T03:48:48.039Z,25.33
2022-12-16T03:51:16.883Z,24.23
2022-12-16T03:53:44.690Z,25.13
2022-12-16T03:56:12.442Z,20.60
2022-12-16T03:58:40.814Z,21.63
2022-12-16T04:01:09.329Z,25.67
2022-12-16T04:03:37.432Z,24.77
2022-12-16T04:06:05.357Z,26.67
2022-12-16T04:08:34.217Z,24.13
2022-12-16T04:11:19.424Z,27.40
2022-12-16T04:14:05.005Z,25.53
2022-12-16T04:16:50.389Z,30.83
2022-12-16T04:19:38.416Z,26.17
2022-12-16T04:22:23.276Z,27.60
2022-12-16T04:24:52.013Z,28.47
2022-12-16T04:27:29.323Z,28.57
2022-12-16T04:30:14.572Z,27.17
2022-12-16T04:32:59.557Z,25.67
2022-12-16T04:35:44.544Z,23.77
2022-12-16T04:38:29.508Z,22.37
2022-12-16T04:41:15.665Z,29.47
2022-12-16T04:44:01.003Z,32.87
2022-12-16T04:46:45.971Z,38.00
2022-12-16T04:49:31.120Z,36.67
2022-12-16T04:52:16.028Z,36.83
2022-12-16T04:54:57.435Z,35.33
2022-12-16T04:57:40.336Z,31.70
2022-12-16T05:00:22.605Z,28.03
2022-12-16T05:03:08.143Z,30.63
2022-12-16T05:05:52.973Z,29.53
2022-12-16T05:08:37.899Z,31.67
2022-12-16T05:11:23.431Z,28.63
2022-12-16T05:14:09.540Z,30.40
2022-12-16T05:16:54.445Z,33.90
2022-12-16T05:19:39.458Z,33.80
2022-12-16T05:22:24.515Z,29.23
2022-12-16T05:25:09.391Z,31.97
2022-12-16T05:27:54.244Z,33.03
2022-12-16T05:30:40.554Z,32.83
2022-12-16T05:33:25.339Z,33.00
2022-12-16T05:36:10.198Z,30.57
2022-12-16T05:38:55.035Z,23.70
2022-12-16T05:41:40.088Z,26.27
2022-12-16T05:44:25.247Z,25.00
2022-12-16T05:47:11.459Z,24.57
2022-12-16T05:49:56.632Z,27.63
2022-12-16T05:52:41.491Z,27.47
2022-12-16T05:55:33.622Z,27.40
2022-12-16T05:58:19.105Z,22.30
2022-12-16T06:01:04.872Z,28.60
2022-12-16T06:03:51.051Z,26.93
2022-12-16T06:06:36.001Z,28.20
2022-12-16T06:09:21.239Z,25.50
2022-12-16T06:12:06.643Z,31.83
2022-12-16T06:14:51.567Z,25.27
2022-12-16T06:17:32.967Z,27.87
2022-12-16T06:20:19.088Z,26.87
2022-12-16T06:23:08.965Z,31.50
2022-12-16T06:25:53.937Z,30.47
2022-12-16T06:28:42.060Z,23.33
2022-12-16T06:31:30.755Z,27.07
2022-12-16T06:34:15.774Z,27.10
2022-12-16T06:37:01.976Z,24.90
2022-12-16T06:39:52.606Z,24.20
2022-12-16T06:42:38.154Z,29.33
2022-12-16T06:45:19.810Z,25.77
2022-12-16T06:48:04.666Z,27.17
2022-12-16T06:50:54.982Z,24.23
2022-12-16T06:53:42.484Z,24.77
2022-12-16T06:56:27.421Z,24.63
2022-12-16T06:59:12.215Z,29.63
2022-12-16T07:01:57.254Z,30.47
2022-12-16T07:04:42.559Z,28.07
2022-12-16T07:07:27.361Z,36.70
2022-12-16T07:10:13.604Z,33.40
2022-12-16T07:12:58.617Z,31.37
2022-12-16T07:15:51.902Z,30.60
2022-12-16T07:18:36.808Z,30.07
2022-12-16T07:21:21.713Z,31.40
2022-12-16T07:24:06.622Z,30.20
2022-12-16T07:26:52.923Z,30.73
2022-12-16T07:29:38.003Z,28.97
2022-12-16T07:32:23.106Z,31.90
2022-12-16T07:35:08.044Z,30.43
2022-12-16T07:37:53.052Z,26.27
2022-12-16T07:40:38.340Z,28.40
2022-12-16T07:43:24.899Z,25.50
2022-12-16T07:46:12.564Z,31.33
2022-12-16T07:48:57.737Z,27.70
2022-12-16T07:51:42.536Z,33.90
2022-12-16T07:54:27.392Z,35.03
2022-12-16T07:57:12.100Z,28.90
2022-12-16T07:59:58.270Z,31.03
2022-12-16T08:02:43.691Z,34.67
2022-12-16T08:05:40.385Z,35.43
2022-12-16T08:08:25.487Z,30.77
2022-12-16T08:11:10.442Z,30.57
2022-12-16T08:13:55.663Z,31.03
2022-12-16T08:16:42.071Z,32.30
2022-12-16T08:19:27.310Z,37.27
2022-12-16T08:22:12.114Z,32.17
2022-12-16T08:24:57.063Z,32.40
2022-12-16T08:27:41.930Z,36.03
2022-12-16T08:30:27.354Z,32.17
2022-12-16T08:33:18.927Z,34.33
2022-12-16T08:36:15.911Z,34.47
2022-12-16T08:39:00.890Z,37.00
2022-12-16T08:41:45.706Z,32.17
2022-12-16T08:44:31.451Z,30.90
2022-12-16T08:47:16.354Z,35.83
2022-12-16T08:50:02.899Z,34.67
2022-12-16T08:52:48.743Z,32.43
2022-12-16T08:55:33.758Z,32.23
2022-12-16T08:58:18.617Z,32.17
2022-12-16T09:01:07.358Z,34.30
2022-12-16T09:03:52.758Z,31.43
2022-12-16T09:06:40.865Z,32.33
2022-12-16T09:09:25.945Z,32.43
2022-12-16T09:12:10.848Z,38.50
2022-12-16T09:14:55.748Z,40.43
2022-12-16T09:17:41.552Z,27.83
2022-12-16T09:20:27.413Z,43.03
2022-12-16T09:23:13.577Z,35.77
2022-12-16T09:25:58.439Z,45.00
2022-12-16T09:28:43.672Z,27.87
2022-12-16T09:31:28.838Z,18.23
2022-12-16T09:34:14.072Z,51.73
2022-12-16T09:36:59.432Z,29.63
2022-12-16T09:39:46.814Z,39.03
2022-12-16T09:42:36.164Z,35.73
2022-12-16T09:45:25.097Z,47.93
2022-12-16T09:48:15.158Z,41.17
2022-12-16T09:51:01.808Z,49.27
2022-12-16T09:53:49.771Z,37.03
2022-12-16T09:56:37.011Z,39.33
2022-12-16T09:59:25.004Z,52.47
2022-12-16T10:02:10.144Z,54.93
2022-12-16T10:04:55.511Z,49.17
2022-12-16T10:07:41.320Z,23.83
2022-12-16T10:10:35.225Z,36.10
2022-12-16T10:13:25.896Z,49.10
2022-12-16T10:16:16.117Z,33.37
2022-12-16T10:19:04.951Z,50.67
2022-12-16T10:21:53.380Z,43.77
2022-12-16T10:24:43.923Z,49.67
2022-12-16T10:27:32.051Z,48.33
2022-12-16T10:30:18.991Z,36.20
2022-12-16T10:33:05.227Z,16.43
2022-12-16T10:35:53.788Z,25.23
2022-12-16T10:38:42.312Z,38.80
2022-12-16T10:41:28.163Z,32.13
2022-12-16T10:44:14.183Z,44.93
2022-12-16T10:47:00.384Z,40.73
2022-12-16T10:49:49.598Z,32.40
2022-12-16T10:52:38.590Z,10.73
2022-12-16T10:55:31.020Z,18.23
2022-12-16T10:58:19.115Z,43.13
2022-12-16T11:01:05.432Z,18.63
2022-12-16T11:03:52.322Z,20.20
2022-12-16T11:06:41.683Z,51.53
2022-12-16T11:09:33.193Z,52.57
2022-12-16T11:12:31.296Z,50.23
2022-12-16T11:15:31.453Z,48.70
2022-12-16T11:18:20.289Z,42.47
2022-12-16T11:21:22.144Z,50.97
2022-12-16T11:24:24.835Z,51.53
2022-12-16T11:27:13.872Z,23.97
2022-12-16T11:30:11.934Z,45.60
2022-12-16T11:32:58.131Z,51.50
2022-12-16T11:35:44.542Z,51.63
2022-12-16T11:38:39.841Z,54.23
2022-12-16T11:41:25.504Z,38.37
2022-12-16T11:44:10.978Z,41.57
2022-12-16T11:46:56.012Z,46.37
2022-12-16T11:49:45.305Z,58.70
2022-12-16T11:52:39.207Z,52.27
2022-12-16T11:56:02.850Z,42.70
2022-12-16T11:58:39.847Z,32.87
2022-12-16T12:01:29.921Z,32.00
2022-12-16T12:04:14.920Z,46.33
2022-12-16T12:07:12.044Z,49.57
2022-12-16T12:09:59.736Z,46.20
2022-12-16T12:12:52.100Z,40.00
2022-12-16T12:15:42.816Z,45.83
2022-12-16T12:18:33.071Z,50.67
2022-12-16T12:21:22.453Z,48.77
2022-12-16T12:24:10.868Z,56.30
2022-12-16T12:27:01.923Z,48.13
2022-12-16T12:29:51.532Z,49.53
2022-12-16T12:32:40.580Z,48.07
2022-12-16T12:35:31.376Z,54.80
2022-12-16T12:38:20.279Z,47.37
2022-12-16T12:41:11.431Z,46.43
2022-12-16T12:43:59.937Z,48.73
2022-12-16T12:46:50.107Z,43.30
2022-12-16T12:49:39.040Z,52.67
2022-12-16T12:52:31.170Z,45.70
2022-12-16T12:55:18.965Z,45.10
2022-12-16T12:58:04.493Z,45.90
2022-12-16T13:00:51.510Z,50.40
2022-12-16T13:03:42.613Z,53.20
2022-12-16T13:06:28.321Z,49.23
2022-12-16T13:09:14.836Z,51.30
2022-12-16T13:12:33.612Z,50.73
2022-12-16T13:15:21.471Z,43.77
2022-12-16T13:18:25.449Z,49.27
2022-12-16T13:21:12.375Z,45.50
2022-12-16T13:23:58.131Z,55.50
2022-12-16T13:26:44.098Z,60.37
2022-12-16T13:29:36.078Z,54.90
2022-12-16T13:32:22.199Z,43.40
2022-12-16T13:35:17.639Z,49.23
2022-12-16T13:38:11.391Z,50.20
2022-12-16T13:41:10.965Z,47.33
2022-12-16T13:44:02.551Z,53.87
2022-12-16T13:46:57.853Z,49.73
2022-12-16T13:50:02.846Z,50.87
2022-12-16T13:52:54.292Z,41.43
2022-12-16T13:55:45.800Z,41.10
2022-12-16T13:58:35.565Z,44.07
2022-12-16T14:01:23.885Z,50.63
2022-12-16T14:04:10.808Z,45.60
2022-12-16T14:06:57.104Z,42.60
2022-12-16T14:09:45.652Z,42.53
2022-12-16T14:12:37.446Z,47.20
2022-12-16T14:15:25.399Z,54.67
2022-12-16T14:18:14.523Z,49.40
2022-12-16T14:21:02.801Z,49.03
2022-12-16T14:23:58.424Z,49.00
2022-12-16T14:26:43.728Z,46.43
2022-12-16T14:29:35.870Z,50.87
2022-12-16T14:32:36.053Z,42.53
2022-12-16T14:35:21.030Z,49.60
2022-12-16T14:38:05.785Z,42.97
2022-12-16T14:40:51.138Z,51.60
2022-12-16T14:43:37.999Z,43.37
2022-12-16T14:46:25.004Z,43.20
2022-12-16T14:49:10.460Z,44.50
2022-12-16T14:51:56.060Z,46.57
2022-12-16T14:54:43.156Z,42.47
2022-12-16T14:57:30.067Z,43.70
2022-12-16T15:00:18.508Z,49.57
2022-12-16T15:03:06.348Z,42.83
2022-12-16T15:05:53.246Z,38.90
2022-12-16T15:08:39.509Z,39.00
2022-12-16T15:11:27.298Z,43.03
2022-12-16T15:14:13.840Z,46.63
2022-12-16T15:16:58.952Z,41.83
2022-12-16T15:19:45.474Z,48.40
2022-12-16T15:22:32.379Z,40.80
2022-12-16T15:25:17.843Z,48.30
2022-12-16T15:28:11.771Z,46.03
2022-12-16T15:30:57.720Z,46.20
2022-12-16T15:33:44.505Z,47.70
2022-12-16T15:36:41.964Z,44.37
2022-12-16T15:39:35.877Z,44.43
2022-12-16T15:42:20.938Z,41.70
2022-12-16T15:45:07.179Z,43.63
2022-12-16T15:47:53.079Z,42.40
2022-12-16T15:50:39.040Z,45.43
2022-12-16T15:53:35.193Z,44.53
2022-12-16T15:56:20.468Z,37.57
2022-12-16T15:59:05.671Z,41.53
2022-12-16T16:02:02.941Z,46.30
2022-12-16T16:04:50.196Z,42.27
2022-12-16T16:07:36.232Z,37.03
2022-12-16T16:10:26.977Z,41.87
2022-12-16T16:13:11.861Z,42.30
2022-12-16T16:15:56.715Z,39.83
2022-12-16T16:18:41.838Z,39.37
2022-12-16T16:21:26.875Z,48.10
2022-12-16T16:24:11.564Z,43.63
2022-12-16T16:26:59.125Z,45.23
2022-12-16T16:29:44.041Z,48.77
2022-12-16T16:32:29.289Z,48.20
2022-12-16T16:35:14.256Z,47.67
2022-12-16T16:38:18.250Z,48.47
2022-12-16T16:41:03.770Z,42.87
2022-12-16T16:43:50.337Z,44.70
2022-12-16T16:46:45.988Z,42.97
2022-12-16T16:49:31.855Z,45.80
2022-12-16T16:52:16.738Z,38.87
2022-12-16T16:55:02.358Z,38.43
2022-12-16T16:57:51.230Z,41.60
2022-12-16T17:00:36.949Z,46.83
2022-12-16T17:03:22.217Z,35.03
2022-12-16T17:06:08.342Z,43.40
2022-12-16T17:08:53.145Z,45.33
2022-12-16T17:11:38.547Z,42.23
2022-12-16T17:14:24.012Z,44.33
2022-12-16T17:17:10.249Z,41.57
2022-12-16T17:19:55.051Z,39.27
2022-12-16T17:22:39.877Z,37.07
2022-12-16T17:25:25.674Z,40.00
2022-12-16T17:28:10.535Z,39.77
2022-12-16T17:30:55.453Z,41.87
2022-12-16T17:33:41.872Z,38.00
2022-12-16T17:36:31.941Z,47.13
2022-12-16T17:39:17.487Z,41.30
2022-12-16T17:42:16.956Z,40.77
2022-12-16T17:45:02.171Z,40.07
2022-12-16T17:47:47.143Z,43.33
2022-12-16T17:50:33.753Z,44.80
2022-12-16T17:53:18.737Z,40.07
2022-12-16T17:56:12.018Z,38.03
2022-12-16T17:58:57.343Z,41.90
2022-12-16T18:01:42.995Z,38.70
2022-12-16T18:04:28.294Z,43.10
2022-12-16T18:07:14.652Z,45.57
2022-12-16T18:10:00.268Z,45.27
2022-12-16T18:12:45.343Z,43.67
2022-12-16T18:15:30.434Z,40.87
2022-12-16T18:18:15.314Z,40.23
2022-12-16T18:21:00.466Z,41.40
2022-12-16T18:23:49.094Z,44.10
2022-12-16T18:26:34.432Z,45.63
2022-12-16T18:29:19.656Z,38.90
2022-12-16T18:32:06.324Z,41.27
2022-12-16T18:34:51.216Z,37.87
2022-12-16T18:37:36.096Z,38.30
2022-12-16T18:40:24.508Z,38.70
2022-12-16T18:43:09.785Z,39.73
2022-12-16T18:45:54.659Z,42.07
2022-12-16T18:48:39.894Z,40.83
2022-12-16T18:51:24.888Z,43.07
2022-12-16T18:54:09.721Z,44.77
2022-12-16T18:56:56.279Z,40.30
2022-12-16T18:59:41.843Z,42.90
2022-12-16T19:02:35.457Z,40.30
2022-12-16T19:05:20.598Z,48.33
2022-12-16T19:08:08.841Z,39.20
2022-12-16T19:10:58.327Z,37.53
2022-12-16T19:13:44.442Z,51.90
2022-12-16T19:16:29.878Z,43.37
2022-12-16T19:19:19.832Z,42.33
2022-12-16T19:22:05.279Z,42.17
2022-12-16T19:24:50.355Z,33.43
2022-12-16T19:27:34.473Z,46.53
2022-12-16T19:30:20.638Z,30.97
2022-12-16T19:33:06.568Z,40.17
2022-12-16T19:35:53.689Z,38.07
2022-12-16T19:38:38.969Z,39.57
2022-12-16T19:41:23.844Z,42.73
2022-12-16T19:44:08.702Z,45.13
2022-12-16T19:46:56.323Z,40.47
2022-12-16T19:49:44.455Z,45.27
2022-12-16T19:52:32.636Z,37.60
2022-12-16T19:58:22.401Z,44.10
2022-12-16T20:01:07.576Z,41.63
2022-12-16T20:03:51.932Z,35.13
2022-12-16T20:06:37.359Z,48.10
2022-12-16T20:09:22.420Z,52.40
2022-12-16T20:12:07.777Z,44.57
2022-12-16T20:14:53.340Z,41.83
2022-12-16T20:17:38.333Z,47.37
2022-12-16T20:20:25.047Z,47.77
2022-12-16T20:23:09.918Z,46.33
2022-12-16T20:25:56.312Z,53.53
2022-12-16T20:28:41.551Z,45.83
2022-12-16T20:31:26.739Z,47.50
2022-12-16T20:34:12.052Z,51.27
2022-12-16T20:36:58.138Z,41.00
2022-12-16T20:39:46.649Z,43.07
2022-12-16T20:42:34.855Z,49.23
2022-12-16T20:45:19.908Z,47.60
2022-12-16T20:48:05.141Z,48.80
2022-12-16T20:50:50.001Z,43.57
2022-12-16T20:53:37.056Z,45.93
2022-12-16T20:56:22.900Z,44.23
2022-12-16T20:59:08.184Z,53.07
2022-12-16T21:02:21.704Z,46.03
2022-12-16T21:04:59.267Z,48.83
2022-12-16T21:07:44.391Z,45.53
2022-12-16T21:10:31.152Z,46.13
2022-12-16T21:13:23.228Z,49.27
2022-12-16T21:16:08.496Z,40.57
2022-12-16T21:18:54.553Z,47.43
2022-12-16T21:21:41.739Z,30.03
2022-12-16T21:24:26.499Z,50.17
2022-12-16T21:27:13.022Z,44.20
2022-12-16T21:29:58.024Z,46.17
2022-12-16T21:32:44.605Z,47.27
2022-12-16T21:35:30.042Z,52.97
2022-12-16T21:38:15.283Z,45.73
2022-12-16T21:41:00.302Z,46.47
2022-12-16T21:43:46.540Z,48.87
2022-12-16T21:46:31.636Z,45.40
2022-12-16T21:49:24.796Z,46.93
2022-12-16T21:52:09.724Z,48.33
2022-12-16T21:54:54.524Z,50.47
2022-12-16T21:57:40.019Z,38.30
2022-12-16T22:00:27.353Z,41.30
2022-12-16T22:03:13.182Z,42.10
2022-12-16T22:05:58.242Z,46.40
2022-12-16T22:08:42.995Z,48.60
2022-12-16T22:11:28.484Z,42.93
2022-12-16T22:14:13.465Z,42.10
2022-12-16T22:16:59.857Z,44.77
2022-12-16T22:19:45.073Z,46.07
2022-12-16T22:22:30.300Z,47.97
2022-12-16T22:25:15.152Z,42.37
2022-12-16T22:28:00.105Z,40.43
2022-12-16T22:30:45.124Z,46.40
2022-12-16T22:33:31.611Z,51.00
2022-12-16T22:36:22.335Z,36.10
2022-12-16T22:39:07.260Z,44.33
2022-12-16T22:41:53.200Z,46.93
2022-12-16T22:44:38.793Z,36.33
2022-12-16T22:47:29.245Z,43.43
2022-12-16T22:50:15.419Z,41.67
2022-12-16T22:53:00.291Z,45.87
2022-12-16T22:55:45.154Z,40.13
2022-12-16T22:58:30.720Z,37.13
2022-12-16T23:01:15.767Z,44.77
2022-12-16T23:04:01.184Z,39.77
2022-12-16T23:06:47.687Z,40.80
2022-12-16T23:09:32.658Z,39.13
2022-12-16T23:12:18.049Z,39.03
2022-12-16T23:15:02.895Z,42.30
2022-12-16T23:17:47.763Z,46.73
2022-12-16T23:20:32.453Z,46.23
2022-12-16T23:23:18.548Z,39.70
2022-12-16T23:26:13.075Z,39.50
2022-12-16T23:28:58.043Z,38.57
2022-12-16T23:31:43.283Z,41.00
2022-12-16T23:32:29.870Z,38.53
2022-12-16T23:34:28.518Z,43.73
2022-12-16T23:37:13.345Z,39.90
2022-12-16T23:39:58.753Z,44.50
2022-12-16T23:42:43.697Z,42.03
2022-12-16T23:45:28.647Z,44.30
2022-12-16T23:48:18.283Z,39.03
2022-12-16T23:51:03.231Z,42.50
2022-12-16T23:53:48.204Z,42.13
2022-12-16T23:56:34.434Z,42.67
2022-12-16T23:59:19.398Z,47.43
